Airport View

Enter AWOS ICAO identifier for current METAR.

KFNL for example

KAEJ 221135Z AUTO 00000KT 10SM SCT090 SCT110 11/M02 A2999 RMK AO2 T01051022

22 Sep 2017 11:44

Frequency: 132.925

Phone: 719-395-2599

Other Area AWOS: K7BM - KANK - KMYP - KLXV

TAF KASE 220521Z 2206/2306 14005KT P6SM SKC WS020/22040KT FM221200 18007KT P6SM FEW080 SCT200 WS020/21035KT FM221500 17011KT P6SM SCT080 BKN150 FM222000 19015G24KT P6SM VCTS SCT070CB BKN100 FM230200 18006KT P6SM SCT060 BKN090